createdAt,value
2019-06-20T00:02:27.550Z,4.97
2019-06-20T00:05:24.297Z,5.27
2019-06-20T00:08:20.138Z,5.20
2019-06-20T00:11:15.987Z,5.10
2019-06-20T00:14:14.328Z,5.27
2019-06-20T00:17:10.719Z,5.17
2019-06-20T00:20:08.735Z,5.10
2019-06-20T00:23:04.637Z,5.20
2019-06-20T00:26:01.258Z,5.57
2019-06-20T00:28:57.538Z,6.10
2019-06-20T00:31:55.670Z,5.30
2019-06-20T00:34:52.340Z,5.43
2019-06-20T00:37:48.796Z,5.00
2019-06-20T00:40:45.538Z,5.43
2019-06-20T00:43:42.027Z,5.80
2019-06-20T00:46:41.921Z,5.50
2019-06-20T00:49:37.824Z,5.43
2019-06-20T00:52:34.410Z,5.37
2019-06-20T00:55:32.845Z,5.40
2019-06-20T00:58:29.740Z,5.07
2019-06-20T01:01:25.393Z,5.67
2019-06-20T01:04:20.809Z,5.23
2019-06-20T01:07:16.732Z,5.57
2019-06-20T01:10:14.115Z,5.80
2019-06-20T01:13:10.335Z,6.07
2019-06-20T01:16:06.638Z,5.97
2019-06-20T01:19:03.024Z,5.30
2019-06-20T01:21:58.739Z,4.90
2019-06-20T01:24:54.433Z,5.33
2019-06-20T01:27:50.852Z,5.47
2019-06-20T01:30:47.528Z,5.10
2019-06-20T01:33:45.790Z,5.20
2019-06-20T01:36:43.114Z,5.50
2019-06-20T01:39:38.545Z,5.10
2019-06-20T01:42:34.127Z,6.00
2019-06-20T01:45:30.622Z,5.07
2019-06-20T01:48:26.251Z,5.97
2019-06-20T01:51:22.524Z,5.27
2019-06-20T01:54:18.961Z,5.20
2019-06-20T01:57:15.007Z,5.37
2019-06-20T02:00:14.419Z,5.47
2019-06-20T02:03:10.529Z,5.43
2019-06-20T02:06:06.297Z,5.47
2019-06-20T02:09:03.070Z,5.67
2019-06-20T02:12:01.957Z,5.63
2019-06-20T02:14:59.642Z,5.83
2019-06-20T02:17:56.145Z,6.10
2019-06-20T02:20:55.632Z,6.20
2019-06-20T02:23:51.024Z,6.50
2019-06-20T02:26:46.436Z,5.80
2019-06-20T02:29:43.079Z,6.47
2019-06-20T02:32:38.600Z,6.20
2019-06-20T02:35:35.136Z,6.87
2019-06-20T02:38:31.769Z,7.20
2019-06-20T02:41:28.344Z,7.67
2019-06-20T02:44:30.272Z,6.90
2019-06-20T02:47:22.177Z,7.20
2019-06-20T02:50:18.169Z,6.50
2019-06-20T02:53:14.813Z,6.90
2019-06-20T02:56:10.619Z,6.33
2019-06-20T02:59:06.278Z,7.33
2019-06-20T03:02:02.948Z,6.90
2019-06-20T03:04:59.257Z,6.60
2019-06-20T03:07:55.857Z,6.90
2019-06-20T03:10:52.262Z,6.37
2019-06-20T03:13:48.452Z,6.63
2019-06-20T03:16:45.119Z,7.07
2019-06-20T03:19:41.444Z,6.80
2019-06-20T03:22:37.157Z,6.90
2019-06-20T03:25:33.576Z,5.73
2019-06-20T03:28:29.452Z,6.87
2019-06-20T03:31:25.482Z,6.47
2019-06-20T03:34:22.096Z,5.93
2019-06-20T03:37:17.884Z,7.50
2019-06-20T03:40:13.357Z,7.00
2019-06-20T03:43:09.034Z,6.97
2019-06-20T03:46:04.362Z,7.03
2019-06-20T03:49:00.800Z,7.13
2019-06-20T03:51:57.310Z,7.23
2019-06-20T03:54:53.810Z,7.00
2019-06-20T03:57:50.039Z,6.67
2019-06-20T04:00:48.932Z,6.70
2019-06-20T04:03:45.236Z,6.87
2019-06-20T04:06:40.832Z,6.27
2019-06-20T04:09:38.873Z,5.77
2019-06-20T04:12:34.538Z,6.13
2019-06-20T04:15:31.248Z,6.83
2019-06-20T04:18:27.309Z,6.60
2019-06-20T04:21:23.934Z,6.77
2019-06-20T04:24:19.433Z,6.70
2019-06-20T04:27:15.285Z,7.00
2019-06-20T04:30:12.196Z,6.20
2019-06-20T04:33:09.032Z,6.40
2019-06-20T04:36:05.688Z,6.23
2019-06-20T04:39:10.069Z,6.60
2019-06-20T04:41:59.388Z,6.23
2019-06-20T04:44:57.448Z,7.10
2019-06-20T04:47:53.471Z,6.23
2019-06-20T04:50:49.301Z,6.90
2019-06-20T04:53:44.672Z,7.60
2019-06-20T04:56:40.025Z,6.70
2019-06-20T04:59:35.625Z,7.40
2019-06-20T05:02:35.499Z,7.60
2019-06-20T05:05:31.144Z,7.60
2019-06-20T05:08:27.782Z,7.80
2019-06-20T05:11:24.030Z,7.40
2019-06-20T05:14:24.825Z,7.03
2019-06-20T05:17:20.876Z,6.33
2019-06-20T05:20:17.461Z,6.10
2019-06-20T05:23:13.920Z,6.60
2019-06-20T05:26:10.598Z,6.57
2019-06-20T05:29:06.494Z,6.73
2019-06-20T05:32:02.187Z,7.00
2019-06-20T05:34:57.563Z,6.70
2019-06-20T05:37:54.662Z,7.83
2019-06-20T05:40:50.326Z,7.40
2019-06-20T05:43:47.899Z,8.17
2019-06-20T05:46:44.630Z,8.43
2019-06-20T05:49:40.482Z,9.43
2019-06-20T05:52:37.009Z,7.97
2019-06-20T05:55:32.952Z,8.17
2019-06-20T05:58:29.705Z,7.83
2019-06-20T06:01:26.443Z,7.67
2019-06-20T06:04:22.786Z,7.07
2019-06-20T06:07:18.461Z,8.00
2019-06-20T06:10:15.381Z,7.03
2019-06-20T06:13:11.842Z,7.70
2019-06-20T06:16:25.143Z,7.10
2019-06-20T06:19:06.222Z,7.07
2019-06-20T06:22:02.837Z,7.40
2019-06-20T06:24:59.270Z,7.00
2019-06-20T06:27:54.734Z,7.47
2019-06-20T06:30:51.084Z,7.70
2019-06-20T06:33:47.358Z,8.00
2019-06-20T06:36:45.005Z,7.73
2019-06-20T06:39:46.828Z,6.73
2019-06-20T06:42:43.466Z,6.77
2019-06-20T06:45:40.128Z,6.70
2019-06-20T06:48:36.927Z,6.10
2019-06-20T06:51:32.694Z,6.03
2019-06-20T06:54:29.182Z,6.10
2019-06-20T06:57:25.767Z,6.07
2019-06-20T07:00:21.598Z,5.40
2019-06-20T07:03:17.116Z,5.53
2019-06-20T07:06:13.563Z,4.60
2019-06-20T07:09:10.030Z,4.60
2019-06-20T07:12:05.907Z,4.50
2019-06-20T07:15:02.256Z,4.40
2019-06-20T07:17:58.901Z,3.90
2019-06-20T07:20:55.229Z,4.03
2019-06-20T07:23:50.961Z,3.70
2019-06-20T07:26:46.626Z,4.40
2019-06-20T07:29:42.858Z,3.93
2019-06-20T07:32:38.498Z,4.00
2019-06-20T07:35:35.034Z,4.57
2019-06-20T07:38:31.311Z,3.40
2019-06-20T07:41:26.837Z,3.83
2019-06-20T07:44:22.621Z,3.87
2019-06-20T07:47:19.096Z,3.60
2019-06-20T07:50:16.730Z,3.10
2019-06-20T07:53:13.192Z,3.00
2019-06-20T07:56:09.576Z,2.80
2019-06-20T07:59:06.467Z,3.20
2019-06-20T08:02:03.838Z,3.40
2019-06-20T08:05:00.916Z,2.70
2019-06-20T08:07:56.400Z,2.87
2019-06-20T08:10:52.817Z,2.83
2019-06-20T08:13:48.041Z,2.47
2019-06-20T08:16:44.128Z,2.80
2019-06-20T08:19:39.505Z,3.03
2019-06-20T08:22:35.223Z,2.93
2019-06-20T08:25:31.729Z,3.13
2019-06-20T08:28:28.425Z,3.30
2019-06-20T08:31:23.894Z,3.40
2019-06-20T08:34:20.366Z,2.93
2019-06-20T08:37:16.970Z,3.10
2019-06-20T08:40:13.686Z,3.03
2019-06-20T08:43:11.294Z,2.90
2019-06-20T08:46:10.185Z,3.27
2019-06-20T08:49:05.908Z,3.20
2019-06-20T08:52:01.356Z,3.30
2019-06-20T08:54:58.235Z,3.20
2019-06-20T08:57:56.333Z,3.57
2019-06-20T09:00:55.472Z,3.67
2019-06-20T09:03:50.866Z,3.47
2019-06-20T09:06:50.040Z,4.13
2019-06-20T09:09:44.257Z,4.03
2019-06-20T09:12:40.301Z,4.10
2019-06-20T09:15:37.339Z,4.27
2019-06-20T09:18:33.747Z,4.17
2019-06-20T09:21:34.283Z,3.87
2019-06-20T09:24:31.066Z,3.90
2019-06-20T09:27:26.615Z,4.30
2019-06-20T09:30:24.395Z,4.13
2019-06-20T09:33:19.967Z,3.70
2019-06-20T09:36:16.529Z,4.10
2019-06-20T09:39:12.234Z,3.90
2019-06-20T09:42:08.118Z,3.80
2019-06-20T09:45:03.917Z,4.17
2019-06-20T09:48:00.494Z,4.13
2019-06-20T09:50:57.049Z,3.67
2019-06-20T09:53:53.853Z,3.90
2019-06-20T09:56:53.080Z,3.67
2019-06-20T09:59:59.229Z,3.43
2019-06-20T10:02:46.341Z,3.70
2019-06-20T10:05:42.602Z,3.20
2019-06-20T10:08:39.093Z,3.20
2019-06-20T10:11:38.572Z,3.33
2019-06-20T10:14:35.571Z,3.13
2019-06-20T10:17:32.267Z,3.07
2019-06-20T10:20:29.193Z,3.20
2019-06-20T10:23:25.105Z,2.93
2019-06-20T10:26:20.709Z,2.77
2019-06-20T10:29:16.571Z,3.30
2019-06-20T10:32:11.914Z,2.50
2019-06-20T10:35:07.901Z,2.90
2019-06-20T10:38:05.138Z,3.00
2019-06-20T10:41:00.485Z,3.07
2019-06-20T10:43:56.758Z,3.20
2019-06-20T10:46:52.196Z,2.60
2019-06-20T10:49:50.291Z,2.87
2019-06-20T10:52:48.034Z,2.77
2019-06-20T10:55:44.879Z,2.17
2019-06-20T10:58:43.095Z,2.20
2019-06-20T11:01:39.842Z,2.70
2019-06-20T11:04:37.453Z,2.60
2019-06-20T11:07:40.744Z,2.67
2019-06-20T11:10:39.971Z,2.87
2019-06-20T11:13:36.080Z,2.40
2019-06-20T11:16:32.737Z,1.97
2019-06-20T11:19:27.951Z,2.20
2019-06-20T11:22:26.096Z,2.30
2019-06-20T11:25:23.308Z,2.30
2019-06-20T11:28:18.804Z,2.33
2019-06-20T11:31:14.767Z,2.13
2019-06-20T11:34:10.503Z,2.50
2019-06-20T11:37:05.847Z,2.10
2019-06-20T11:40:02.462Z,2.53
2019-06-20T11:42:58.405Z,2.40
2019-06-20T11:45:54.811Z,2.47
2019-06-20T11:48:51.404Z,2.80
2019-06-20T11:51:50.070Z,2.80
2019-06-20T11:54:47.107Z,3.53
2019-06-20T11:57:44.625Z,3.30
2019-06-20T12:00:41.421Z,2.90
2019-06-20T12:03:39.023Z,3.10
2019-06-20T12:06:35.644Z,3.03
2019-06-20T12:09:31.540Z,2.97
2019-06-20T12:12:28.096Z,2.60
2019-06-20T12:15:23.970Z,3.00
2019-06-20T12:18:20.099Z,2.63
2019-06-20T12:21:16.736Z,3.03
2019-06-20T12:24:13.311Z,2.23
2019-06-20T12:27:09.918Z,2.37
2019-06-20T12:30:07.528Z,2.50
2019-06-20T12:33:03.016Z,2.77
2019-06-20T12:35:59.118Z,2.80
2019-06-20T12:38:54.371Z,2.50
2019-06-20T12:41:50.348Z,2.70
2019-06-20T12:44:46.046Z,2.47
2019-06-20T12:47:43.818Z,2.73
2019-06-20T12:50:41.487Z,2.83
2019-06-20T12:53:40.200Z,2.60
2019-06-20T12:56:38.649Z,2.50
2019-06-20T12:59:33.692Z,3.00
2019-06-20T13:02:30.053Z,2.90
2019-06-20T13:05:27.225Z,2.50
2019-06-20T13:08:23.601Z,2.53
2019-06-20T13:11:18.946Z,2.40
2019-06-20T13:14:15.305Z,2.40
2019-06-20T13:17:11.923Z,2.30
2019-06-20T13:20:09.336Z,2.40
2019-06-20T13:23:05.570Z,2.63
2019-06-20T13:26:02.035Z,3.03
2019-06-20T13:29:04.155Z,2.73
2019-06-20T13:32:03.816Z,2.00
2019-06-20T13:34:53.439Z,2.33
2019-06-20T13:37:49.841Z,2.50
2019-06-20T13:40:47.202Z,3.27
2019-06-20T13:43:42.711Z,3.30
2019-06-20T13:46:40.033Z,3.37
2019-06-20T13:49:36.764Z,3.40
2019-06-20T13:52:34.075Z,3.50
2019-06-20T13:55:30.993Z,3.23
2019-06-20T13:58:26.535Z,3.20
2019-06-20T14:01:23.151Z,2.60
2019-06-20T14:04:19.801Z,2.60
2019-06-20T14:07:17.266Z,2.50
2019-06-20T14:10:16.148Z,3.20
2019-06-20T14:13:19.344Z,3.20
2019-06-20T14:16:10.969Z,2.70
2019-06-20T14:19:07.313Z,2.60
2019-06-20T14:22:03.161Z,2.50
2019-06-20T14:24:59.016Z,2.80
2019-06-20T14:27:54.530Z,2.50
2019-06-20T14:30:50.908Z,2.27
2019-06-20T14:33:48.523Z,2.30
2019-06-20T14:36:44.706Z,2.87
2019-06-20T14:39:42.220Z,2.60
2019-06-20T14:42:39.369Z,2.57
2019-06-20T14:45:37.989Z,3.30
2019-06-20T14:48:32.429Z,3.70
2019-06-20T14:51:29.008Z,3.20
2019-06-20T14:54:25.953Z,2.90
2019-06-20T14:57:22.067Z,3.40
2019-06-20T15:00:20.827Z,3.10
2019-06-20T15:03:16.285Z,3.10
2019-06-20T15:06:11.918Z,2.93
2019-06-20T15:09:09.061Z,2.67
2019-06-20T15:12:06.507Z,2.73
2019-06-20T15:15:02.984Z,3.50
2019-06-20T15:17:58.624Z,2.97
2019-06-20T15:20:58.832Z,2.53
2019-06-20T15:23:52.569Z,2.80
2019-06-20T15:26:49.402Z,2.67
2019-06-20T15:29:48.930Z,2.33
2019-06-20T15:33:01.194Z,2.50
2019-06-20T15:35:42.723Z,3.10
2019-06-20T15:38:38.784Z,3.33
2019-06-20T15:41:35.766Z,3.17
2019-06-20T15:44:31.315Z,2.70
2019-06-20T15:47:28.371Z,3.00
2019-06-20T15:50:24.897Z,2.83
2019-06-20T15:53:20.589Z,2.50
2019-06-20T15:56:16.293Z,2.83
2019-06-20T15:59:12.129Z,2.73
2019-06-20T16:02:08.772Z,2.80
2019-06-20T16:05:05.107Z,2.90
2019-06-20T16:08:04.775Z,3.30
2019-06-20T16:11:01.177Z,2.70
2019-06-20T16:13:56.725Z,2.73
2019-06-20T16:16:54.464Z,2.73
2019-06-20T16:19:51.586Z,2.50
2019-06-20T16:22:47.466Z,2.47
2019-06-20T16:25:44.088Z,2.70
2019-06-20T16:28:40.854Z,2.53
2019-06-20T16:31:37.319Z,3.30
2019-06-20T16:34:32.606Z,3.20
2019-06-20T16:37:28.185Z,2.97
2019-06-20T16:40:39.133Z,3.33
2019-06-20T16:43:34.568Z,3.30
2019-06-20T16:46:29.839Z,3.23
2019-06-20T16:49:25.455Z,3.37
2019-06-20T16:52:21.911Z,2.77
2019-06-20T16:55:17.709Z,2.80
2019-06-20T16:58:14.156Z,3.23
2019-06-20T17:01:10.061Z,3.30
2019-06-20T17:04:06.128Z,2.97
2019-06-20T17:07:02.769Z,3.20
2019-06-20T17:09:59.511Z,2.93
2019-06-20T17:12:55.851Z,3.10
2019-06-20T17:16:10.607Z,3.37
2019-06-20T17:19:07.122Z,3.10
2019-06-20T17:22:02.772Z,2.60
2019-06-20T17:24:59.055Z,2.77
2019-06-20T17:27:55.345Z,2.90
2019-06-20T17:30:51.126Z,3.30
2019-06-20T17:33:57.064Z,2.90
2019-06-20T17:36:44.569Z,3.23
2019-06-20T17:39:42.690Z,2.80
2019-06-20T17:42:38.934Z,2.73
2019-06-20T17:45:34.732Z,2.30
2019-06-20T17:48:30.168Z,2.97
2019-06-20T17:51:26.786Z,2.70
2019-06-20T17:54:22.549Z,2.53
2019-06-20T17:57:18.914Z,2.83
2019-06-20T18:00:17.581Z,3.03
2019-06-20T18:03:13.364Z,3.83
2019-06-20T18:06:08.921Z,5.50
2019-06-20T18:09:04.429Z,4.67
2019-06-20T18:12:04.847Z,3.73
2019-06-20T18:15:01.301Z,3.60
2019-06-20T18:18:00.813Z,3.93
2019-06-20T18:20:57.395Z,4.27
2019-06-20T18:23:53.039Z,4.07
2019-06-20T18:26:49.483Z,3.37
2019-06-20T18:29:45.881Z,3.80
2019-06-20T18:32:41.879Z,4.10
2019-06-20T18:35:38.270Z,4.30
2019-06-20T18:38:35.390Z,4.20
2019-06-20T18:41:32.013Z,4.00
2019-06-20T18:44:28.383Z,3.83
2019-06-20T18:47:24.058Z,3.47
2019-06-20T18:50:19.825Z,3.40
2019-06-20T18:53:16.915Z,4.50
2019-06-20T18:56:13.379Z,4.20
2019-06-20T18:59:12.270Z,4.10
2019-06-20T19:02:09.216Z,3.83
2019-06-20T19:05:06.844Z,3.50
2019-06-20T19:08:03.301Z,3.80
2019-06-20T19:10:59.137Z,3.97
2019-06-20T19:13:55.343Z,4.23
2019-06-20T19:16:51.296Z,4.10
2019-06-20T19:19:48.294Z,3.60
2019-06-20T19:22:44.352Z,3.97
2019-06-20T19:25:40.723Z,3.63
2019-06-20T19:28:36.506Z,4.20
2019-06-20T19:31:32.267Z,4.17
2019-06-20T19:34:28.678Z,4.13
2019-06-20T19:37:25.561Z,4.00
2019-06-20T19:40:24.854Z,4.37
2019-06-20T19:43:20.422Z,4.80
2019-06-20T19:46:17.081Z,4.27
2019-06-20T19:49:13.709Z,3.80
2019-06-20T19:52:10.212Z,3.67
2019-06-20T19:55:06.558Z,3.87
2019-06-20T19:58:02.044Z,3.20
2019-06-20T20:00:57.795Z,3.50
2019-06-20T20:03:53.793Z,4.27
2019-06-20T20:06:50.203Z,4.27
2019-06-20T20:09:45.987Z,3.50
2019-06-20T20:12:42.570Z,3.57
2019-06-20T20:15:38.987Z,4.20
2019-06-20T20:18:35.017Z,3.73
2019-06-20T20:21:30.684Z,3.73
2019-06-20T20:24:27.059Z,3.80
2019-06-20T20:27:23.421Z,4.70
2019-06-20T20:30:19.710Z,5.20
2019-06-20T20:33:15.600Z,5.53
2019-06-20T20:36:23.963Z,6.33
2019-06-20T20:39:08.603Z,6.27
2019-06-20T20:42:04.271Z,8.33
2019-06-20T20:45:00.035Z,7.80
2019-06-20T20:47:55.831Z,7.53
2019-06-20T20:51:01.857Z,6.60
2019-06-20T20:53:59.476Z,6.77
2019-06-20T20:56:55.039Z,6.43
2019-06-20T20:59:51.911Z,4.03
2019-06-20T21:02:48.500Z,2.57
2019-06-20T21:05:51.404Z,1.90
2019-06-20T21:08:42.690Z,2.90
2019-06-20T21:11:39.269Z,3.37
2019-06-20T21:14:36.461Z,4.27
2019-06-20T21:17:34.143Z,4.77
2019-06-20T21:20:32.262Z,4.47
2019-06-20T21:23:28.537Z,4.17
2019-06-20T21:26:24.756Z,4.40
2019-06-20T21:29:24.448Z,4.73
2019-06-20T21:32:22.477Z,3.03
2019-06-20T21:35:21.073Z,4.20
2019-06-20T21:38:17.562Z,3.73
2019-06-20T21:41:12.810Z,4.20
2019-06-20T21:44:09.257Z,3.90
2019-06-20T21:47:05.865Z,3.37
2019-06-20T21:50:02.594Z,3.13
2019-06-20T21:52:59.141Z,3.70
2019-06-20T21:55:55.472Z,3.70
2019-06-20T21:58:51.764Z,3.73
2019-06-20T22:01:48.607Z,4.10
2019-06-20T22:04:54.076Z,2.50
2019-06-20T22:07:41.812Z,2.63
2019-06-20T22:10:37.536Z,2.43
2019-06-20T22:13:33.772Z,2.30
2019-06-20T22:16:30.332Z,2.83
2019-06-20T22:19:26.140Z,3.17
2019-06-20T22:22:22.684Z,3.40
2019-06-20T22:25:20.751Z,3.87
2019-06-20T22:28:16.057Z,4.03
2019-06-20T22:31:11.616Z,3.97
2019-06-20T22:34:07.916Z,3.93
2019-06-20T22:37:03.838Z,3.63
2019-06-20T22:40:01.829Z,3.77
2019-06-20T22:42:57.427Z,4.00
2019-06-20T22:45:53.843Z,3.80
2019-06-20T22:48:49.440Z,4.03
2019-06-20T22:51:46.003Z,3.80
2019-06-20T22:54:42.636Z,3.43
2019-06-20T22:57:39.291Z,3.33
2019-06-20T23:00:35.153Z,2.83
2019-06-20T23:03:31.648Z,3.20
2019-06-20T23:06:28.069Z,2.80
2019-06-20T23:09:27.269Z,2.90
2019-06-20T23:12:22.057Z,2.93
2019-06-20T23:15:19.218Z,2.77
2019-06-20T23:18:16.049Z,3.50
2019-06-20T23:21:12.436Z,3.43
2019-06-20T23:24:08.575Z,3.27
2019-06-20T23:27:04.228Z,3.50
2019-06-20T23:30:00.515Z,3.17
2019-06-20T23:32:56.202Z,3.47
2019-06-20T23:35:51.714Z,3.40
2019-06-20T23:38:47.371Z,3.07
2019-06-20T23:41:44.836Z,3.80
2019-06-20T23:44:41.094Z,3.17
2019-06-20T23:47:37.278Z,3.23
2019-06-20T23:50:33.623Z,3.47
2019-06-20T23:53:37.535Z,3.40
2019-06-20T23:56:34.710Z,3.47
2019-06-20T23:59:31.093Z,3.10
